Time;durP1;ratioP1;P1;durP2;ratioP2;P2;SDS_P1;SDS_P2;PMS_P1;PMS_P2;Temp;Humidity;BMP_temperature;BMP_pressure;BME280_temperature;BME280_humidity;BME280_pressure;Samples;Min_cycle;Max_cycle;Signal;HPM_P1;HPM_P2
2022/11/03 00:01:36;;;;;;;92.40;38.10;;;6.20;99.90;;;;;;5128431;27;20617;-50
2022/11/03 00:04:05;;;;;;;78.97;30.17;;;6.30;99.90;;;;;;5127904;27;20209;-50
2022/11/03 00:06:33;;;;;;;80.50;37.57;;;6.30;99.90;;;;;;5130697;27;20288;-49
2022/11/03 00:09:04;;;;;;;111.47;47.23;;;6.40;99.90;;;;;;5129618;27;20290;-50
2022/11/03 00:11:34;;;;;;;63.23;21.30;;;6.50;99.90;;;;;;5130340;27;20289;-49
2022/11/03 00:14:03;;;;;;;100.80;29.87;;;6.50;99.90;;;;;;5129587;27;20303;-50
2022/11/03 00:16:32;;;;;;;186.80;53.97;;;6.60;99.90;;;;;;5130136;27;20294;-50
2022/11/03 00:19:00;;;;;;;66.70;19.97;;;6.60;99.90;;;;;;5129785;27;20316;-50
2022/11/03 00:21:29;;;;;;;59.97;15.67;;;6.70;99.90;;;;;;5129799;27;20270;-50
2022/11/03 00:23:57;;;;;;;92.70;32.57;;;6.70;99.90;;;;;;5114950;27;20235;-49
2022/11/03 00:26:26;;;;;;;61.70;23.17;;;6.80;99.90;;;;;;5129643;27;20289;-50
2022/11/03 00:28:59;;;;;;;71.87;16.47;;;6.90;99.90;;;;;;5129707;27;20210;-50
2022/11/03 00:31:29;;;;;;;82.37;30.27;;;7.00;99.90;;;;;;5129673;27;20230;-50
2022/11/03 00:33:58;;;;;;;99.57;36.67;;;6.90;99.90;;;;;;5129067;27;20234;-49
2022/11/03 00:36:28;;;;;;;65.60;22.80;;;7.00;99.90;;;;;;5129729;27;20202;-50
2022/11/03 00:38:57;;;;;;;168.97;54.67;;;7.00;99.90;;;;;;5129681;28;20233;-50
2022/11/03 00:41:26;;;;;;;84.20;37.60;;;6.90;99.90;;;;;;5129767;27;20210;-50
2022/11/03 00:43:56;;;;;;;103.50;37.00;;;6.90;99.90;;;;;;5129124;27;20229;-50
2022/11/03 00:46:25;;;;;;;147.30;47.97;;;6.90;99.90;;;;;;5129708;27;20245;-50
2022/11/03 00:48:53;;;;;;;52.40;21.30;;;6.90;99.90;;;;;;5128863;27;20216;-49
2022/11/03 00:51:24;;;;;;;60.60;26.27;;;6.90;99.90;;;;;;5129465;27;20675;-50
2022/11/03 00:53:53;;;;;;;255.00;94.90;;;7.00;99.90;;;;;;5129141;27;20289;-50
2022/11/03 00:56:23;;;;;;;58.50;20.83;;;7.10;99.90;;;;;;5131577;27;20234;-50
2022/11/03 00:58:54;;;;;;;126.33;30.60;;;7.10;99.90;;;;;;5119787;27;20254;-50
2022/11/03 01:01:25;;;;;;;79.67;31.20;;;7.10;99.90;;;;;;5133021;27;20225;-50
2022/11/03 01:06:50;;;;;;;65.67;18.23;;;7.20;99.90;;;;;;5133418;27;20204;-50
2022/11/03 01:09:19;;;;;;;102.87;37.60;;;7.20;99.90;;;;;;5133608;27;20221;-50
2022/11/03 01:11:53;;;;;;;66.57;27.07;;;7.20;99.90;;;;;;5131954;27;20748;-50
2022/11/03 01:14:21;;;;;;;162.60;45.53;;;7.30;99.90;;;;;;5133740;27;20212;-50
2022/11/03 01:16:51;;;;;;;109.43;40.97;;;7.30;99.90;;;;;;5133209;27;20700;-50
2022/11/03 01:19:19;;;;;;;93.20;33.50;;;7.30;99.90;;;;;;5132951;27;20225;-50
2022/11/03 01:21:47;;;;;;;195.53;81.77;;;7.40;99.90;;;;;;5125380;27;20640;-50
2022/11/03 01:24:16;;;;;;;137.23;51.70;;;7.40;99.90;;;;;;5133042;27;20234;-50
2022/11/03 01:26:44;;;;;;;176.90;67.30;;;7.40;99.90;;;;;;5133261;27;20234;-49
2022/11/03 01:29:12;;;;;;;158.27;52.87;;;7.40;99.90;;;;;;5132510;27;20234;-50
2022/11/03 01:31:40;;;;;;;97.40;25.67;;;7.40;99.90;;;;;;5133250;27;20199;-50
2022/11/03 01:34:14;;;;;;;57.20;16.60;;;7.40;99.90;;;;;;5131967;27;20305;-50
2022/11/03 01:36:43;;;;;;;186.33;55.00;;;7.40;99.90;;;;;;5132526;27;20217;-50
2022/11/03 01:39:12;;;;;;;121.87;43.40;;;7.40;99.90;;;;;;5132883;27;20239;-50
2022/11/03 01:41:42;;;;;;;267.07;106.73;;;7.40;99.90;;;;;;5132363;27;20294;-49
2022/11/03 01:44:29;;;;;;;165.63;51.87;;;7.50;99.90;;;;;;5133109;27;22231;-50
2022/11/03 01:47:02;;;;;;;214.20;69.53;;;7.50;99.90;;;;;;5132784;27;20959;-50
2022/11/03 01:49:35;;;;;;;85.33;36.00;;;7.50;99.90;;;;;;5131881;27;20786;-50
2022/11/03 01:52:08;;;;;;;228.10;83.10;;;7.50;99.90;;;;;;5131942;27;20226;-50
2022/11/03 01:54:38;;;;;;;93.20;40.33;;;7.50;99.90;;;;;;5132646;27;20269;-49
2022/11/03 01:57:13;;;;;;;77.00;34.33;;;7.50;99.90;;;;;;5132433;27;20289;-49
2022/11/03 01:59:43;;;;;;;105.60;40.07;;;7.50;99.90;;;;;;5132296;27;20260;-50
2022/11/03 02:02:12;;;;;;;114.53;48.00;;;7.50;99.90;;;;;;5131447;27;20246;-50
2022/11/03 02:04:42;;;;;;;233.10;84.93;;;7.50;99.90;;;;;;5132633;27;20203;-48
2022/11/03 02:07:17;;;;;;;332.27;85.40;;;7.50;99.90;;;;;;5131131;27;20213;-49
2022/11/03 02:09:45;;;;;;;283.33;63.00;;;7.60;99.90;;;;;;5132092;27;20222;-50
2022/11/03 02:12:16;;;;;;;71.10;23.60;;;7.60;99.90;;;;;;5130994;27;20203;-49
2022/11/03 02:14:52;;;;;;;216.23;62.00;;;7.60;99.90;;;;;;5130122;27;20654;-50
2022/11/03 02:17:22;;;;;;;119.17;35.13;;;7.70;99.90;;;;;;5135557;27;20212;-49
2022/11/03 02:19:56;;;;;;;330.33;101.20;;;7.70;99.90;;;;;;5143173;27;20278;-50
2022/11/03 02:22:36;;;;;;;148.57;52.53;;;7.80;99.90;;;;;;5139208;27;20209;-50
2022/11/03 02:25:14;;;;;;;399.00;141.13;;;7.80;99.90;;;;;;5151038;27;20243;-51
2022/11/03 02:27:44;;;;;;;274.30;56.37;;;7.80;99.90;;;;;;5149259;27;20238;-50
2022/11/03 02:30:12;;;;;;;350.27;132.37;;;7.80;99.90;;;;;;5146374;27;20254;-50
2022/11/03 02:32:48;;;;;;;236.33;77.60;;;7.80;99.90;;;;;;5142889;27;20242;-50
2022/11/03 02:35:23;;;;;;;274.80;104.50;;;7.80;99.90;;;;;;5152067;27;20202;-50
2022/11/03 02:37:55;;;;;;;250.57;105.33;;;7.80;99.90;;;;;;5152838;27;20242;-49
2022/11/03 02:40:29;;;;;;;177.20;72.40;;;7.90;99.90;;;;;;5150744;27;20309;-50
2022/11/03 02:43:00;;;;;;;266.27;84.00;;;7.90;99.90;;;;;;5151798;27;20202;-50
2022/11/03 02:45:28;;;;;;;168.13;61.33;;;7.90;99.90;;;;;;5152249;27;20208;-50
2022/11/03 02:48:00;;;;;;;140.80;47.83;;;7.90;99.90;;;;;;5140730;27;20677;-50
2022/11/03 02:50:30;;;;;;;82.50;38.90;;;8.00;99.90;;;;;;5148054;27;20293;-50
2022/11/03 02:52:58;;;;;;;67.57;27.20;;;8.00;99.90;;;;;;5140025;27;20206;-50
2022/11/03 02:55:35;;;;;;;103.57;33.60;;;7.90;99.90;;;;;;5146502;27;20229;-50
2022/11/03 02:58:12;;;;;;;130.43;40.30;;;8.00;99.90;;;;;;5151156;27;20706;-50
2022/11/03 03:00:47;;;;;;;287.40;103.63;;;7.90;99.90;;;;;;5146249;27;20304;-50
2022/11/03 03:03:20;;;;;;;88.60;38.33;;;7.90;99.90;;;;;;5151636;27;20236;-49
2022/11/03 03:05:51;;;;;;;78.47;28.20;;;7.80;99.90;;;;;;5152026;27;20625;-50
2022/11/03 03:08:21;;;;;;;192.70;63.23;;;7.80;99.90;;;;;;5152199;27;20195;-49
2022/11/03 03:10:50;;;;;;;165.13;53.33;;;7.80;99.90;;;;;;5151337;27;20218;-50
2022/11/03 03:13:22;;;;;;;119.00;44.27;;;7.80;99.90;;;;;;5151565;27;20240;-50
2022/11/03 03:16:03;;;;;;;119.07;43.97;;;7.70;99.90;;;;;;5141224;27;20241;-50
2022/11/03 03:18:42;;;;;;;277.17;118.77;;;7.70;99.90;;;;;;5150692;27;20219;-50
2022/11/03 03:21:15;;;;;;;85.23;32.47;;;7.80;99.90;;;;;;5148682;27;20262;-50
2022/11/03 03:23:48;;;;;;;69.87;31.00;;;7.80;99.90;;;;;;5140901;27;20286;-50
2022/11/03 03:26:23;;;;;;;107.07;34.00;;;7.80;99.90;;;;;;5147357;27;20210;-53
2022/11/03 03:28:57;;;;;;;166.67;60.73;;;7.80;99.90;;;;;;5147756;27;20694;-50
2022/11/03 03:31:27;;;;;;;187.03;52.27;;;7.80;99.90;;;;;;5151389;27;20194;-50
2022/11/03 03:33:57;;;;;;;130.03;50.37;;;7.80;99.90;;;;;;5145759;27;20293;-50
2022/11/03 03:36:33;;;;;;;223.70;56.10;;;7.80;99.90;;;;;;5151776;27;20198;-49
2022/11/03 03:39:04;;;;;;;82.53;27.53;;;7.80;99.90;;;;;;5151152;27;20212;-50
2022/11/03 03:41:34;;;;;;;327.17;123.10;;;7.80;99.90;;;;;;5144394;27;20319;-49
2022/11/03 03:44:07;;;;;;;120.20;38.37;;;7.80;99.90;;;;;;5150122;27;20681;-50
2022/11/03 03:46:39;;;;;;;237.03;73.53;;;7.80;99.90;;;;;;5151544;27;20233;-50
2022/11/03 03:49:08;;;;;;;73.83;20.73;;;7.70;99.90;;;;;;5140257;27;20190;-50
2022/11/03 03:51:37;;;;;;;161.10;51.50;;;7.70;99.90;;;;;;5145400;27;20205;-50
2022/11/03 03:54:06;;;;;;;82.17;28.13;;;7.70;99.90;;;;;;5140130;27;20202;-48
2022/11/03 03:56:40;;;;;;;152.43;55.93;;;7.70;99.90;;;;;;5151153;27;20292;-50
2022/11/03 03:59:09;;;;;;;78.03;35.77;;;7.70;99.90;;;;;;5124780;27;20931;-50
2022/11/03 04:01:38;;;;;;;104.90;40.17;;;7.70;99.90;;;;;;5147958;27;20218;-50
2022/11/03 04:04:06;;;;;;;185.63;70.70;;;7.70;99.90;;;;;;5121807;27;20285;-50
2022/11/03 04:06:34;;;;;;;90.30;35.57;;;7.60;99.90;;;;;;5142965;27;20313;-50
2022/11/03 04:09:02;;;;;;;67.07;25.57;;;7.60;99.90;;;;;;5130466;27;20313;-50
2022/11/03 04:22:34;;;;;;;181.47;69.07;;;7.50;99.90;;;;;;5097619;27;20249;-50
2022/11/03 04:25:02;;;;;;;59.37;28.93;;;7.50;99.90;;;;;;5150945;27;20202;-49
2022/11/03 04:27:33;;;;;;;154.00;51.37;;;7.50;99.90;;;;;;5141587;27;20231;-50
2022/11/03 04:30:14;;;;;;;112.70;42.30;;;7.50;99.90;;;;;;5122635;27;20239;-50
2022/11/03 04:32:43;;;;;;;85.70;37.47;;;7.40;99.90;;;;;;5129162;27;20734;-50
2022/11/03 04:35:16;;;;;;;124.20;40.23;;;7.40;99.90;;;;;;5129852;27;20240;-50
2022/11/03 04:37:45;;;;;;;93.03;31.37;;;7.40;99.90;;;;;;5129877;27;20241;-50
2022/11/03 04:40:16;;;;;;;80.20;26.77;;;7.30;99.90;;;;;;5128967;27;20240;-50
2022/11/03 04:42:46;;;;;;;175.10;60.37;;;7.30;99.90;;;;;;5129534;27;20236;-50
2022/11/03 04:45:29;;;;;;;65.27;21.77;;;7.30;99.90;;;;;;5129209;27;20251;-49
2022/11/03 04:47:59;;;;;;;138.20;56.23;;;7.30;99.90;;;;;;5129466;27;20273;-50
2022/11/03 04:50:28;;;;;;;211.20;83.23;;;7.30;99.90;;;;;;5129872;27;20313;-50
2022/11/03 04:52:57;;;;;;;88.60;35.87;;;7.30;99.90;;;;;;5128587;27;20267;-50
2022/11/03 04:55:26;;;;;;;158.67;51.33;;;7.30;99.90;;;;;;5129402;27;20610;-50
2022/11/03 04:57:58;;;;;;;67.57;24.63;;;7.30;99.90;;;;;;5115005;27;20246;-50
2022/11/03 05:00:27;;;;;;;42.00;12.43;;;7.40;99.90;;;;;;5129633;28;20234;-50
2022/11/03 05:02:55;;;;;;;125.73;40.30;;;7.40;99.90;;;;;;5128335;27;20211;-50
2022/11/03 05:05:26;;;;;;;81.47;18.97;;;7.40;99.90;;;;;;5129728;27;20240;-50
2022/11/03 05:07:56;;;;;;;93.27;34.07;;;7.40;99.90;;;;;;5129259;27;20235;-49
2022/11/03 05:10:26;;;;;;;145.40;54.33;;;7.40;99.90;;;;;;5129226;27;20794;-50
2022/11/03 05:12:55;;;;;;;73.67;22.07;;;7.40;99.90;;;;;;5129002;27;20255;-50
2022/11/03 05:15:31;;;;;;;188.83;50.83;;;7.30;99.90;;;;;;5129056;27;20636;-50
2022/11/03 05:18:01;;;;;;;59.00;20.90;;;7.40;99.90;;;;;;5129133;27;20199;-50
2022/11/03 05:20:34;;;;;;;239.43;70.57;;;7.30;99.90;;;;;;5129247;27;20226;-50
2022/11/03 05:23:05;;;;;;;84.33;27.50;;;7.40;99.90;;;;;;5133005;27;20208;-49
2022/11/03 05:25:42;;;;;;;256.33;92.10;;;7.30;99.90;;;;;;5143668;27;20297;-49
2022/11/03 05:28:20;;;;;;;126.77;40.07;;;7.20;99.90;;;;;;5133032;27;20252;-50
2022/11/03 05:30:50;;;;;;;63.07;17.17;;;7.20;99.90;;;;;;5144073;27;20775;-50
2022/11/03 05:33:28;;;;;;;98.23;38.23;;;7.20;99.90;;;;;;5148206;27;20225;-50
2022/11/03 05:36:00;;;;;;;62.47;25.27;;;7.20;99.90;;;;;;5142045;27;20213;-50
2022/11/03 05:38:31;;;;;;;67.87;24.23;;;7.20;99.90;;;;;;5144890;27;20685;-50
2022/11/03 05:41:00;;;;;;;67.60;29.17;;;7.20;99.90;;;;;;5149286;27;20265;-50
2022/11/03 05:43:29;;;;;;;108.50;33.43;;;7.10;99.90;;;;;;5140460;27;20234;-50
2022/11/03 05:46:03;;;;;;;107.50;39.83;;;7.10;99.90;;;;;;5153823;27;20639;-49
2022/11/03 05:48:34;;;;;;;47.83;15.67;;;7.10;99.90;;;;;;5152883;27;20242;-50
2022/11/03 05:51:15;;;;;;;196.30;89.67;;;7.10;99.90;;;;;;5153381;27;20304;-50
2022/11/03 05:53:45;;;;;;;416.00;249.33;;;7.20;99.90;;;;;;5152529;27;20237;-49
2022/11/03 05:56:18;;;;;;;336.60;198.47;;;7.10;99.90;;;;;;5153480;27;20240;-51
2022/11/03 05:58:48;;;;;;;180.30;90.80;;;7.10;99.90;;;;;;5152959;27;20944;-51
2022/11/03 06:01:24;;;;;;;95.53;46.03;;;7.10;99.90;;;;;;5131967;27;20342;-50
2022/11/03 06:03:53;;;;;;;92.17;46.87;;;7.10;99.90;;;;;;5129858;27;20198;-51
2022/11/03 06:06:25;;;;;;;74.73;38.10;;;7.10;99.90;;;;;;5131758;27;20206;-50
2022/11/03 06:08:59;;;;;;;97.53;41.57;;;7.20;99.90;;;;;;5131557;27;20194;-51
2022/11/03 06:11:32;;;;;;;112.97;43.83;;;7.10;99.90;;;;;;5131688;27;20678;-50
2022/11/03 06:14:00;;;;;;;77.10;32.77;;;7.20;99.90;;;;;;5131951;27;20265;-51
2022/11/03 06:16:49;;;;;;;146.97;55.80;;;7.20;99.90;;;;;;5132033;27;20286;-51
2022/11/03 06:19:27;;;;;;;84.03;37.20;;;7.10;99.90;;;;;;5131671;27;20302;-50
2022/11/03 06:21:58;;;;;;;118.77;40.60;;;7.10;99.90;;;;;;5121586;27;20275;-50
2022/11/03 06:24:31;;;;;;;61.97;21.70;;;7.10;99.90;;;;;;5144199;27;20279;-51
2022/11/03 06:27:00;;;;;;;106.70;46.67;;;7.00;99.90;;;;;;5152560;27;20615;-51
2022/11/03 06:29:32;;;;;;;184.10;67.37;;;7.00;99.90;;;;;;5143677;27;20877;-50
2022/11/03 06:32:02;;;;;;;99.13;43.43;;;7.00;99.90;;;;;;5132143;27;20251;-50
2022/11/03 06:34:42;;;;;;;123.27;50.00;;;7.00;99.90;;;;;;5118036;27;20748;-49
2022/11/03 06:37:20;;;;;;;100.50;30.00;;;7.00;99.90;;;;;;5129809;27;20288;-49
2022/11/03 06:39:49;;;;;;;123.37;48.47;;;7.00;99.90;;;;;;5129976;27;20315;-50
2022/11/03 06:42:21;;;;;;;45.27;18.80;;;7.00;99.90;;;;;;5140429;27;20736;-50
2022/11/03 06:44:51;;;;;;;271.17;89.77;;;7.00;99.90;;;;;;5144052;27;20202;-51
2022/11/03 06:47:25;;;;;;;149.73;50.43;;;7.00;99.90;;;;;;5151695;27;20233;-50
2022/11/03 06:49:56;;;;;;;241.50;52.03;;;7.10;99.90;;;;;;5152013;27;20257;-51
2022/11/03 06:52:27;;;;;;;139.43;46.77;;;7.10;99.90;;;;;;5151426;27;20245;-50
2022/11/03 06:55:09;;;;;;;219.43;65.80;;;7.10;99.90;;;;;;5116382;27;20290;-51
2022/11/03 06:57:46;;;;;;;68.40;35.30;;;7.10;99.90;;;;;;5148172;27;20247;-49
2022/11/03 07:00:19;;;;;;;222.13;88.90;;;7.10;99.90;;;;;;5114787;27;20726;-51
2022/11/03 07:03:08;;;;;;;80.13;31.83;;;7.10;99.90;;;;;;5134250;27;20788;-50
2022/11/03 07:05:39;;;;;;;231.00;75.63;;;7.10;99.90;;;;;;5149197;27;20201;-51
2022/11/03 07:08:17;;;;;;;302.43;133.87;;;7.10;99.90;;;;;;5142356;27;20281;-51
2022/11/03 07:10:45;;;;;;;71.83;30.10;;;7.10;99.90;;;;;;5151252;27;20231;-50
2022/11/03 07:13:18;;;;;;;60.40;26.47;;;7.20;99.90;;;;;;5151361;27;20238;-49
2022/11/03 07:15:46;;;;;;;70.90;45.73;;;7.20;99.90;;;;;;5135261;27;20233;-50
2022/11/03 07:18:21;;;;;;;161.60;55.50;;;7.30;99.90;;;;;;5151259;27;20259;-50
2022/11/03 07:20:49;;;;;;;46.60;26.30;;;7.40;99.90;;;;;;5151556;27;20269;-51
2022/11/03 07:23:22;;;;;;;198.83;79.20;;;7.50;99.90;;;;;;5122560;27;20226;-50
2022/11/03 07:25:53;;;;;;;212.30;92.33;;;7.50;99.90;;;;;;5151511;27;20210;-50
2022/11/03 07:28:24;;;;;;;134.07;49.57;;;7.60;99.90;;;;;;5147191;27;20218;-50
2022/11/03 07:30:53;;;;;;;193.60;73.00;;;7.60;99.90;;;;;;5144159;27;20281;-50
2022/11/03 07:33:25;;;;;;;153.30;55.10;;;7.70;99.90;;;;;;5149038;27;20240;-50
2022/11/03 07:35:56;;;;;;;347.63;68.83;;;7.80;99.90;;;;;;5150357;27;20241;-50
2022/11/03 07:38:47;;;;;;;136.83;41.50;;;7.90;99.90;;;;;;5150144;27;20558;-49
2022/11/03 07:41:20;;;;;;;325.37;123.73;;;8.00;99.90;;;;;;5151034;27;20253;-51
2022/11/03 07:43:53;;;;;;;165.17;49.93;;;8.00;99.90;;;;;;5126504;27;20194;-50
2022/11/03 07:46:23;;;;;;;281.97;87.40;;;8.10;99.90;;;;;;5151134;27;20646;-51
2022/11/03 07:48:56;;;;;;;281.10;100.17;;;8.20;99.90;;;;;;5150143;27;20638;-50
2022/11/03 07:51:27;;;;;;;346.10;110.13;;;8.20;99.90;;;;;;5130192;27;20207;-51
2022/11/03 07:53:58;;;;;;;337.03;90.17;;;8.30;99.90;;;;;;5129813;27;20612;-50
2022/11/03 07:56:28;;;;;;;378.70;112.97;;;8.30;99.90;;;;;;5129530;27;20679;-50
2022/11/03 07:59:01;;;;;;;339.67;95.53;;;8.40;99.90;;;;;;5129925;27;20233;-50
2022/11/03 08:01:31;;;;;;;165.73;59.27;;;8.40;99.90;;;;;;5129332;27;20242;-50
2022/11/03 08:04:04;;;;;;;89.80;25.20;;;8.50;99.90;;;;;;5128565;27;20237;-50
2022/11/03 08:06:33;;;;;;;57.23;36.33;;;8.50;99.90;;;;;;5130609;27;20268;-49
2022/11/03 08:09:01;;;;;;;866.23;255.93;;;8.60;99.90;;;;;;5129433;27;20245;-50
2022/11/03 08:11:29;;;;;;;565.17;168.17;;;8.70;99.90;;;;;;5129901;27;20727;-50
2022/11/03 08:13:57;;;;;;;192.37;67.70;;;8.80;99.90;;;;;;5129316;27;20234;-50
2022/11/03 08:16:25;;;;;;;154.63;59.57;;;8.90;99.90;;;;;;5130505;27;20376;-51
2022/11/03 08:18:54;;;;;;;239.53;75.00;;;9.00;99.90;;;;;;5113719;27;20648;-51
2022/11/03 08:21:23;;;;;;;171.80;44.93;;;9.10;99.90;;;;;;5130015;27;20703;-50
2022/11/03 08:23:52;;;;;;;232.50;81.87;;;9.20;99.90;;;;;;5139933;27;20222;-51
2022/11/03 08:26:20;;;;;;;551.10;156.57;;;9.40;99.90;;;;;;5150743;27;20223;-51
2022/11/03 08:28:48;;;;;;;860.07;196.30;;;9.60;99.90;;;;;;5147520;27;20735;-49
2022/11/03 08:31:16;;;;;;;597.80;147.57;;;9.70;99.90;;;;;;5149910;27;20769;-50
2022/11/03 08:33:45;;;;;;;496.97;145.27;;;9.90;99.90;;;;;;5149656;27;20746;-50
2022/11/03 08:36:13;;;;;;;785.47;196.13;;;10.00;99.90;;;;;;5150391;27;20206;-50
2022/11/03 08:38:43;;;;;;;705.23;158.70;;;10.10;99.90;;;;;;5142019;27;20218;-50
2022/11/03 08:41:11;;;;;;;778.83;199.70;;;10.10;99.90;;;;;;5150326;27;20249;-50
2022/11/03 08:43:39;;;;;;;596.53;171.47;;;10.20;99.90;;;;;;5135354;27;20227;-50
2022/11/03 08:46:07;;;;;;;970.57;237.00;;;10.20;99.90;;;;;;5150916;27;20231;-51
2022/11/03 08:48:45;;;;;;;895.83;269.30;;;10.30;99.90;;;;;;5151086;27;20194;-50
2022/11/03 08:51:14;;;;;;;418.70;103.67;;;10.30;99.90;;;;;;5151320;27;20754;-51
2022/11/03 08:53:44;;;;;;;447.57;141.70;;;10.30;99.90;;;;;;5149148;27;20231;-51
2022/11/03 08:56:12;;;;;;;736.80;265.53;;;10.30;99.90;;;;;;5140353;27;20208;-50
2022/11/03 08:58:43;;;;;;;1999.90;573.87;;;10.30;99.90;;;;;;5150024;27;20198;-50
2022/11/03 09:01:11;;;;;;;1013.30;293.73;;;10.40;99.90;;;;;;5150480;27;20327;-51
2022/11/03 09:03:40;;;;;;;1534.97;419.07;;;10.50;99.90;;;;;;5148920;27;20225;-51
2022/11/03 09:06:09;;;;;;;1054.90;286.43;;;10.50;99.90;;;;;;5144452;27;20203;-50
2022/11/03 09:08:37;;;;;;;1999.90;457.80;;;10.60;99.90;;;;;;5145729;27;20237;-50
2022/11/03 09:11:26;;;;;;;1244.93;337.17;;;10.70;99.90;;;;;;5139171;27;20689;-50
2022/11/03 09:13:56;;;;;;;1999.90;391.80;;;10.70;99.90;;;;;;5146723;27;20263;-50
2022/11/03 09:16:25;;;;;;;1999.90;490.13;;;10.80;99.90;;;;;;5151027;27;20573;-50
2022/11/03 09:18:53;;;;;;;1551.97;322.20;;;10.80;99.90;;;;;;5151746;27;20622;-49
2022/11/03 09:21:21;;;;;;;1999.90;554.67;;;10.80;99.90;;;;;;5137009;27;20302;-50
2022/11/03 09:23:49;;;;;;;1999.90;625.27;;;10.90;99.90;;;;;;5143608;27;20306;-50
2022/11/03 09:26:18;;;;;;;1999.90;559.80;;;10.90;99.90;;;;;;5153472;27;20262;-50
2022/11/03 09:28:48;;;;;;;1492.07;388.33;;;11.00;99.90;;;;;;5147608;27;20246;-50
2022/11/03 09:31:16;;;;;;;1627.87;326.43;;;11.10;99.90;;;;;;5153696;27;20230;-50
2022/11/03 09:33:44;;;;;;;1999.90;502.20;;;11.30;99.90;;;;;;5152862;27;20216;-49
2022/11/03 09:36:12;;;;;;;1999.90;661.00;;;11.40;99.90;;;;;;5153901;27;20240;-50
2022/11/03 09:38:41;;;;;;;1999.90;608.43;;;11.50;99.90;;;;;;5153745;27;20305;-49
2022/11/03 09:41:16;;;;;;;1999.90;872.17;;;11.50;99.90;;;;;;5153085;27;20237;-50
2022/11/03 09:44:04;;;;;;;1917.23;353.90;;;11.50;99.90;;;;;;5146494;27;20256;-51
2022/11/03 09:46:34;;;;;;;1741.47;309.83;;;11.60;99.90;;;;;;5153391;27;20745;-50
2022/11/03 09:49:02;;;;;;;1999.90;555.53;;;11.60;99.90;;;;;;5153449;27;20255;-50
2022/11/03 09:51:32;;;;;;;1999.90;470.20;;;11.60;99.90;;;;;;5153674;27;20240;-50
2022/11/03 09:54:04;;;;;;;1999.90;613.80;;;11.60;99.90;;;;;;5152904;27;20698;-50
2022/11/03 09:56:36;;;;;;;1999.90;672.67;;;11.60;99.90;;;;;;5152929;27;20206;-50
2022/11/03 09:59:14;;;;;;;1999.90;563.30;;;11.60;99.90;;;;;;5152886;27;20294;-50
2022/11/03 10:01:44;;;;;;;1995.67;360.30;;;11.70;99.90;;;;;;5152026;27;20202;-50
2022/11/03 10:04:13;;;;;;;1999.90;860.00;;;11.70;99.90;;;;;;5152966;27;20206;-50
2022/11/03 10:06:41;;;;;;;1999.90;566.03;;;11.70;99.90;;;;;;5142684;27;20663;-50
2022/11/03 10:09:14;;;;;;;1999.90;568.47;;;11.70;99.90;;;;;;5152530;27;20697;-50
2022/11/03 10:11:44;;;;;;;1999.90;508.27;;;11.70;99.90;;;;;;5152339;27;20230;-51
2022/11/03 10:14:16;;;;;;;1999.90;763.37;;;11.70;99.90;;;;;;5147365;27;20273;-50
2022/11/03 10:16:51;;;;;;;1561.60;466.87;;;11.80;99.90;;;;;;5153045;27;20257;-50
2022/11/03 10:19:20;;;;;;;1999.90;595.60;;;11.80;99.90;;;;;;5152265;27;20605;-50
2022/11/03 10:21:49;;;;;;;1999.90;702.03;;;11.90;99.90;;;;;;5144327;27;20203;-50
2022/11/03 10:24:17;;;;;;;1999.90;534.90;;;11.90;99.90;;;;;;5146370;27;20779;-51
2022/11/03 10:26:47;;;;;;;1999.90;605.23;;;12.00;99.90;;;;;;5145691;27;20202;-50
2022/11/03 10:29:21;;;;;;;1999.90;546.37;;;12.10;99.90;;;;;;5148803;27;20248;-50
2022/11/03 10:31:51;;;;;;;1991.03;538.73;;;12.10;99.90;;;;;;5139742;27;20658;-50
2022/11/03 10:34:35;;;;;;;1999.90;941.30;;;12.10;99.90;;;;;;5151307;27;20578;-50
2022/11/03 10:37:19;;;;;;;1999.90;806.47;;;12.10;99.90;;;;;;5126726;27;20612;-50
2022/11/03 10:39:49;;;;;;;1999.90;712.80;;;12.10;99.90;;;;;;5152676;27;20226;-50
2022/11/03 10:42:22;;;;;;;1999.90;470.80;;;12.10;99.90;;;;;;5151402;27;20290;-50
2022/11/03 10:44:54;;;;;;;1999.90;720.77;;;12.20;99.90;;;;;;5152010;27;20744;-50
2022/11/03 10:47:32;;;;;;;1999.90;755.80;;;12.30;99.90;;;;;;5151202;27;20662;-50
2022/11/03 10:50:21;;;;;;;1999.90;728.03;;;12.40;99.90;;;;;;5152057;27;20304;-49
2022/11/03 10:52:50;;;;;;;1835.43;435.13;;;12.60;99.90;;;;;;5143388;27;20210;-50
2022/11/03 10:55:19;;;;;;;1999.90;551.43;;;12.60;99.90;;;;;;5152142;27;20241;-51
2022/11/03 10:57:54;;;;;;;1999.90;647.47;;;12.70;99.90;;;;;;5152165;27;20313;-50
2022/11/03 11:00:24;;;;;;;1999.90;653.53;;;12.70;99.90;;;;;;5148554;27;20772;-50
2022/11/03 11:02:58;;;;;;;1999.90;730.97;;;12.80;99.90;;;;;;5141077;27;20297;-50
2022/11/03 11:05:26;;;;;;;1999.90;534.43;;;12.90;99.90;;;;;;5148574;27;20218;-50
2022/11/03 11:07:55;;;;;;;1999.90;695.37;;;13.10;99.90;;;;;;5128517;27;20220;-50
2022/11/03 11:10:25;;;;;;;1999.90;641.53;;;13.20;99.90;;;;;;5146702;27;20666;-50
2022/11/03 11:13:25;;;;;;;1999.90;953.77;;;13.30;99.90;;;;;;5123111;27;20199;-50
2022/11/03 11:15:57;;;;;;;1999.90;936.27;;;13.40;99.90;;;;;;5121000;27;20203;-50
2022/11/03 11:19:10;;;;;;;1999.90;789.60;;;13.40;99.90;;;;;;5130516;27;20297;-50
2022/11/03 11:22:01;;;;;;;1999.90;906.73;;;13.40;99.90;;;;;;5115362;27;20203;-50
2022/11/03 11:24:58;;;;;;;1999.90;837.63;;;13.30;99.90;;;;;;5147031;27;20293;-50
2022/11/03 11:27:55;;;;;;;1999.90;755.53;;;13.40;99.90;;;;;;5141450;27;20206;-51
2022/11/03 11:30:59;;;;;;;1999.90;764.33;;;13.50;99.90;;;;;;5130156;27;20230;-50
2022/11/03 11:33:31;;;;;;;1999.90;994.97;;;13.50;99.90;;;;;;5115544;27;20738;-50
2022/11/03 11:36:19;;;;;;;1999.90;905.03;;;13.50;99.90;;;;;;5130618;27;20282;-50
2022/11/03 11:39:08;;;;;;;1999.90;585.97;;;13.50;99.90;;;;;;5130443;27;20242;-49
2022/11/03 11:42:12;;;;;;;1999.90;643.30;;;13.50;99.90;;;;;;5129240;27;20290;-50
2022/11/03 11:44:52;;;;;;;1999.90;824.30;;;13.50;99.90;;;;;;5130122;27;20599;-50
2022/11/03 11:47:32;;;;;;;1999.90;869.87;;;13.50;99.90;;;;;;5129344;27;20222;-50
2022/11/03 11:50:31;;;;;;;1999.90;710.33;;;13.50;99.90;;;;;;5130090;27;20227;-50
2022/11/03 11:53:04;;;;;;;1999.90;609.83;;;13.50;99.90;;;;;;5116986;27;20210;-49
2022/11/03 11:55:55;;;;;;;1999.90;528.57;;;13.50;99.90;;;;;;5129604;27;20198;-50
2022/11/03 11:58:29;;;;;;;1999.90;787.97;;;13.60;99.90;;;;;;5130212;27;20885;-50
2022/11/03 12:01:00;;;;;;;1999.90;779.40;;;13.60;99.90;;;;;;5130247;27;20254;-49
2022/11/03 12:03:39;;;;;;;1999.90;778.47;;;13.60;99.90;;;;;;5119240;27;20211;-50
2022/11/03 12:06:11;;;;;;;1999.90;623.50;;;13.70;99.90;;;;;;5123435;27;20207;-50
2022/11/03 12:08:40;;;;;;;1999.90;818.00;;;13.60;99.90;;;;;;5129598;27;20650;-50
2022/11/03 12:11:11;;;;;;;1999.90;621.97;;;13.60;99.90;;;;;;5130062;27;20301;-50
2022/11/03 12:13:47;;;;;;;1999.90;842.40;;;13.60;99.90;;;;;;5128369;27;20203;-50
2022/11/03 12:16:30;;;;;;;1999.90;831.53;;;13.60;99.90;;;;;;5128744;27;20260;-50
2022/11/03 12:19:36;;;;;;;1999.90;937.13;;;13.60;99.90;;;;;;5127278;27;20297;-49
2022/11/03 12:22:07;;;;;;;1999.90;797.43;;;13.60;99.90;;;;;;5129373;27;20293;-50
2022/11/03 12:24:48;;;;;;;1999.90;600.97;;;13.60;99.90;;;;;;5147175;27;20352;-49
2022/11/03 12:27:42;;;;;;;1999.90;793.23;;;13.60;99.90;;;;;;5128109;27;20309;-48
2022/11/03 12:30:18;;;;;;;1999.90;540.37;;;13.60;99.90;;;;;;5134120;27;20229;-50
2022/11/03 12:32:47;;;;;;;1999.90;908.80;;;13.50;99.90;;;;;;5140999;27;20199;-51
2022/11/03 12:35:16;;;;;;;1999.90;657.73;;;13.50;99.90;;;;;;5145335;27;20199;-51
2022/11/03 12:37:45;;;;;;;1999.90;769.43;;;13.50;99.90;;;;;;5143324;27;20202;-51
2022/11/03 12:40:14;;;;;;;1999.90;593.23;;;13.50;99.90;;;;;;5150299;27;20218;-50
2022/11/03 12:42:42;;;;;;;1999.90;716.30;;;13.50;99.90;;;;;;5149430;27;20257;-50
2022/11/03 12:45:12;;;;;;;1999.90;678.80;;;13.50;99.90;;;;;;5150375;27;20300;-50
2022/11/03 12:47:40;;;;;;;1999.90;617.10;;;13.50;99.90;;;;;;5149799;27;20202;-50
2022/11/03 12:50:09;;;;;;;1999.90;662.80;;;13.50;99.90;;;;;;5150343;27;20955;-50
2022/11/03 12:52:37;;;;;;;1999.90;733.57;;;13.40;99.90;;;;;;5153950;27;20297;-51
2022/11/03 12:55:08;;;;;;;1967.00;424.00;;;13.40;99.90;;;;;;5141507;27;20245;-52
2022/11/03 12:57:36;;;;;;;1999.90;483.23;;;13.40;99.90;;;;;;5138675;27;20284;-51
2022/11/03 13:00:05;;;;;;;1999.90;785.37;;;13.40;99.90;;;;;;5154626;27;20264;-50